sensor_id;sensor_type;location;lat;lon;timestamp;P1;durP1;ratioP1;P2;durP2;ratioP2
42168;SDS011;27838;43.858;25.974;2023-03-01T22:08:27;31.33;;;19.95;;
42168;SDS011;27838;43.858;25.974;2023-03-01T22:10:54;33.95;;;20.42;;
42168;SDS011;27838;43.858;25.974;2023-03-01T22:13:20;30.98;;;19.88;;
42168;SDS011;27838;43.858;25.974;2023-03-01T22:15:47;31.98;;;19.85;;
42168;SDS011;27838;43.858;25.974;2023-03-01T22:18:13;32.30;;;20.48;;
42168;SDS011;27838;43.858;25.974;2023-03-01T22:20:40;39.63;;;20.58;;
42168;SDS011;27838;43.858;25.974;2023-03-01T22:23:07;31.42;;;21.33;;
42168;SDS011;27838;43.858;25.974;2023-03-01T22:25:38;37.25;;;22.00;;
42168;SDS011;27838;43.858;25.974;2023-03-01T22:28:06;35.60;;;20.88;;
42168;SDS011;27838;43.858;25.974;2023-03-01T22:30:33;33.72;;;20.90;;
42168;SDS011;27838;43.858;25.974;2023-03-01T22:32:59;34.95;;;20.08;;
42168;SDS011;27838;43.858;25.974;2023-03-01T22:35:26;41.42;;;22.33;;
42168;SDS011;27838;43.858;25.974;2023-03-01T22:37:53;32.15;;;21.77;;
42168;SDS011;27838;43.858;25.974;2023-03-01T22:40:20;37.35;;;21.05;;
42168;SDS011;27838;43.858;25.974;2023-03-01T22:42:46;32.53;;;19.80;;
42168;SDS011;27838;43.858;25.974;2023-03-01T22:45:13;32.90;;;20.85;;
42168;SDS011;27838;43.858;25.974;2023-03-01T22:47:39;33.97;;;20.45;;
42168;SDS011;27838;43.858;25.974;2023-03-01T22:50:06;33.13;;;20.88;;
42168;SDS011;27838;43.858;25.974;2023-03-01T22:52:34;32.63;;;19.90;;
42168;SDS011;27838;43.858;25.974;2023-03-01T22:55:03;29.52;;;18.83;;
42168;SDS011;27838;43.858;25.974;2023-03-01T22:57:30;31.15;;;20.38;;
42168;SDS011;27838;43.858;25.974;2023-03-01T22:59:57;35.38;;;19.02;;
42168;SDS011;27838;43.858;25.974;2023-03-01T23:02:23;35.40;;;20.42;;
42168;SDS011;27838;43.858;25.974;2023-03-01T23:04:50;36.45;;;21.67;;
42168;SDS011;27838;43.858;25.974;2023-03-01T23:07:18;39.30;;;23.05;;
42168;SDS011;27838;43.858;25.974;2023-03-01T23:09:44;39.28;;;23.30;;
42168;SDS011;27838;43.858;25.974;2023-03-01T23:12:11;38.53;;;23.23;;
42168;SDS011;27838;43.858;25.974;2023-03-01T23:14:37;38.20;;;23.45;;
42168;SDS011;27838;43.858;25.974;2023-03-01T23:17:06;38.80;;;22.23;;
42168;SDS011;27838;43.858;25.974;2023-03-01T23:19:34;37.95;;;22.25;;
42168;SDS011;27838;43.858;25.974;2023-03-01T23:22:00;35.67;;;21.63;;
42168;SDS011;27838;43.858;25.974;2023-03-01T23:24:27;35.35;;;21.63;;
42168;SDS011;27838;43.858;25.974;2023-03-01T23:26:56;37.85;;;22.38;;
42168;SDS011;27838;43.858;25.974;2023-03-01T23:29:24;33.85;;;20.85;;
42168;SDS011;27838;43.858;25.974;2023-03-01T23:31:53;33.15;;;20.52;;
42168;SDS011;27838;43.858;25.974;2023-03-01T23:34:20;34.60;;;19.73;;
42168;SDS011;27838;43.858;25.974;2023-03-01T23:36:47;33.50;;;21.15;;
42168;SDS011;27838;43.858;25.974;2023-03-01T23:39:19;40.22;;;21.55;;
42168;SDS011;27838;43.858;25.974;2023-03-01T23:41:46;38.75;;;21.48;;
42168;SDS011;27838;43.858;25.974;2023-03-01T23:44:14;34.40;;;20.65;;
42168;SDS011;27838;43.858;25.974;2023-03-01T23:46:45;33.42;;;20.13;;
42168;SDS011;27838;43.858;25.974;2023-03-01T23:49:15;31.92;;;20.38;;
42168;SDS011;27838;43.858;25.974;2023-03-01T23:51:43;31.02;;;20.13;;
42168;SDS011;27838;43.858;25.974;2023-03-01T23:54:13;32.45;;;21.63;;
42168;SDS011;27838;43.858;25.974;2023-03-01T23:56:42;33.63;;;21.70;;
42168;SDS011;27838;43.858;25.974;2023-03-01T23:59:16;33.38;;;20.42;;
